createdAt,value
2022-09-23T00:01:18.999Z,53.64
2022-09-23T00:03:46.409Z,53.65
2022-09-23T00:06:16.862Z,53.89
2022-09-23T00:08:44.301Z,53.89
2022-09-23T00:11:14.282Z,54.02
2022-09-23T00:13:43.238Z,54.13
2022-09-23T00:16:13.857Z,54.13
2022-09-23T00:18:42.023Z,54.70
2022-09-23T00:21:12.349Z,54.85
2022-09-23T00:23:40.639Z,54.88
2022-09-23T00:26:09.679Z,55.06
2022-09-23T00:28:36.987Z,54.97
2022-09-23T00:31:05.837Z,55.26
2022-09-23T00:33:33.244Z,55.34
2022-09-23T00:36:02.052Z,55.57
2022-09-23T00:38:29.831Z,55.53
2022-09-23T00:40:57.324Z,55.29
2022-09-23T00:43:47.397Z,55.02
2022-09-23T00:46:19.654Z,55.23
2022-09-23T00:48:50.863Z,55.08
2022-09-23T00:51:23.449Z,54.95
2022-09-23T00:53:51.804Z,54.59
2022-09-23T00:56:21.160Z,54.64
2022-09-23T00:58:49.684Z,53.62
2022-09-23T01:01:17.054Z,53.90
2022-09-23T01:03:46.665Z,54.19
2022-09-23T01:06:13.772Z,53.63
2022-09-23T01:08:44.295Z,54.16
2022-09-23T01:11:23.201Z,54.25
2022-09-23T01:14:10.559Z,54.43
2022-09-23T01:16:42.247Z,54.38
2022-09-23T01:19:11.730Z,54.36
2022-09-23T01:21:53.151Z,54.08
2022-09-23T01:24:41.661Z,54.27
2022-09-23T01:27:41.454Z,54.36
2022-09-23T01:30:11.627Z,53.58
2022-09-23T01:32:53.777Z,53.98
2022-09-23T01:35:37.890Z,54.72
2022-09-23T01:38:10.537Z,54.88
2022-09-23T01:40:53.830Z,55.50
2022-09-23T01:43:47.219Z,55.88
2022-09-23T01:46:39.949Z,55.88
2022-09-23T01:49:13.931Z,56.27
2022-09-23T01:51:46.852Z,56.08
2022-09-23T01:54:22.621Z,56.33
2022-09-23T01:57:04.555Z,56.73
2022-09-23T01:59:43.405Z,56.62
2022-09-23T02:02:22.097Z,56.74
2022-09-23T02:05:09.769Z,57.26
2022-09-23T02:08:05.295Z,57.26
2022-09-23T02:10:37.187Z,57.62
2022-09-23T02:13:10.206Z,57.53
2022-09-23T02:15:50.086Z,57.24
2022-09-23T02:18:38.721Z,57.16
2022-09-23T02:21:09.662Z,57.01
2022-09-23T02:23:42.589Z,56.96
2022-09-23T02:26:28.265Z,57.17
2022-09-23T02:29:27.754Z,56.62
2022-09-23T02:32:27.154Z,56.34
2022-09-23T02:35:12.510Z,56.36
2022-09-23T02:38:05.519Z,56.59
2022-09-23T02:40:51.062Z,56.65
2022-09-23T02:43:28.175Z,56.51
2022-09-23T02:45:56.250Z,56.32
2022-09-23T02:48:29.471Z,56.12
2022-09-23T02:50:57.866Z,56.56
2022-09-23T02:53:25.643Z,56.20
2022-09-23T02:55:52.509Z,55.78
2022-09-23T02:58:19.573Z,56.25
2022-09-23T03:00:50.304Z,56.39
2022-09-23T03:03:55.987Z,55.74
2022-09-23T03:06:38.344Z,56.11
2022-09-23T03:09:15.461Z,56.32
2022-09-23T03:11:48.765Z,56.45
2022-09-23T03:15:04.039Z,56.35
2022-09-23T03:17:44.158Z,56.09
2022-09-23T03:20:22.731Z,56.09
2022-09-23T03:22:55.149Z,55.70
2022-09-23T03:25:25.557Z,56.27
2022-09-23T03:27:57.672Z,56.16
2022-09-23T03:30:25.417Z,56.22
2022-09-23T03:32:54.791Z,56.40
2022-09-23T03:35:24.883Z,56.62
2022-09-23T03:38:07.257Z,56.61
2022-09-23T03:40:43.126Z,56.59
2022-09-23T03:43:14.368Z,56.74
2022-09-23T03:45:42.772Z,56.83
2022-09-23T03:48:09.805Z,56.81
2022-09-23T03:50:36.757Z,56.22
2022-09-23T03:53:03.691Z,56.42
2022-09-23T03:55:32.282Z,56.89
2022-09-23T03:58:00.322Z,56.43
2022-09-23T04:00:27.840Z,56.69
2022-09-23T04:02:54.910Z,57.02
2022-09-23T04:05:21.985Z,57.12
2022-09-23T04:07:49.601Z,57.42
2022-09-23T04:10:16.648Z,57.06
2022-09-23T04:12:43.619Z,57.48
2022-09-23T04:15:11.190Z,57.81
2022-09-23T04:17:38.125Z,58.04
2022-09-23T04:20:05.448Z,58.25
2022-09-23T04:22:34.107Z,58.29
2022-09-23T04:25:01.041Z,58.45
2022-09-23T04:27:28.044Z,58.77
2022-09-23T04:29:55.020Z,58.80
2022-09-23T04:32:21.912Z,58.81
2022-09-23T04:34:48.824Z,58.97
2022-09-23T04:37:15.833Z,59.08
2022-09-23T04:39:43.374Z,58.82
2022-09-23T04:42:10.275Z,59.04
2022-09-23T04:44:39.025Z,59.23
2022-09-23T04:47:06.195Z,59.68
2022-09-23T04:49:33.798Z,59.77
2022-09-23T04:52:01.056Z,59.51
2022-09-23T04:54:28.158Z,59.52
2022-09-23T04:56:55.164Z,59.68
2022-09-23T04:59:22.157Z,60.06
2022-09-23T05:01:49.343Z,60.17
2022-09-23T05:04:16.317Z,60.24
2022-09-23T05:06:46.550Z,60.27
2022-09-23T05:09:17.838Z,60.43
2022-09-23T05:11:45.624Z,60.67
2022-09-23T05:14:13.230Z,60.38
2022-09-23T05:16:40.782Z,60.70
2022-09-23T05:19:08.056Z,60.98
2022-09-23T05:21:35.312Z,61.43
2022-09-23T05:24:02.623Z,61.59
2022-09-23T05:26:32.235Z,61.84
2022-09-23T05:29:00.194Z,61.79
2022-09-23T05:31:29.058Z,62.01
2022-09-23T05:34:04.829Z,62.16
2022-09-23T05:36:37.879Z,62.30
2022-09-23T05:39:07.284Z,62.85
2022-09-23T05:41:34.562Z,62.96
2022-09-23T05:44:01.926Z,63.03
2022-09-23T05:46:30.892Z,63.06
2022-09-23T05:49:02.444Z,62.86
2022-09-23T05:51:31.410Z,62.52
2022-09-23T05:53:59.334Z,62.73
2022-09-23T05:56:28.703Z,63.15
2022-09-23T05:58:57.745Z,63.33
2022-09-23T06:01:33.965Z,63.11
2022-09-23T06:04:03.216Z,63.37
2022-09-23T06:06:41.749Z,63.33
2022-09-23T06:09:13.623Z,63.38
2022-09-23T06:11:41.374Z,63.45
2022-09-23T06:14:12.266Z,63.71
2022-09-23T06:16:39.312Z,63.42
2022-09-23T06:19:07.038Z,61.87
2022-09-23T06:21:39.486Z,61.78
2022-09-23T06:24:07.742Z,61.96
2022-09-23T06:26:37.696Z,62.03
2022-09-23T06:29:10.275Z,62.28
2022-09-23T06:31:37.468Z,63.22
2022-09-23T06:34:11.955Z,63.99
2022-09-23T06:36:44.488Z,64.88
2022-09-23T06:39:14.270Z,63.77
2022-09-23T06:41:41.337Z,63.82
2022-09-23T06:44:12.998Z,64.69
2022-09-23T06:46:40.109Z,65.48
2022-09-23T06:49:07.415Z,66.30
2022-09-23T06:51:34.580Z,67.33
2022-09-23T06:54:01.572Z,67.03
2022-09-23T06:56:28.625Z,66.22
2022-09-23T06:58:55.800Z,65.42
2022-09-23T07:01:23.454Z,65.25
2022-09-23T07:03:50.639Z,63.85
2022-09-23T07:06:20.376Z,61.57
2022-09-23T07:08:48.565Z,62.04
2022-09-23T07:11:16.217Z,62.12
2022-09-23T07:13:43.204Z,62.11
2022-09-23T07:16:11.297Z,62.01
2022-09-23T07:18:39.075Z,61.98
2022-09-23T07:21:15.816Z,61.49
2022-09-23T07:23:48.326Z,61.24
2022-09-23T07:26:16.961Z,61.34
2022-09-23T07:28:44.280Z,61.71
2022-09-23T07:31:13.906Z,61.58
2022-09-23T07:33:44.301Z,61.45
2022-09-23T07:36:14.783Z,61.34
2022-09-23T07:38:45.403Z,61.61
2022-09-23T07:41:15.133Z,61.87
2022-09-23T07:43:42.124Z,60.79
2022-09-23T07:46:12.137Z,61.30
2022-09-23T07:48:39.405Z,59.69
2022-09-23T07:51:12.550Z,60.77
2022-09-23T07:53:39.896Z,60.76
2022-09-23T07:56:07.058Z,61.84
2022-09-23T07:58:35.108Z,60.95
2022-09-23T08:01:05.011Z,59.30
2022-09-23T08:03:32.248Z,57.65
2022-09-23T08:06:11.340Z,57.88
2022-09-23T08:08:40.813Z,58.10
2022-09-23T08:11:10.351Z,57.70
2022-09-23T08:13:37.687Z,57.46
2022-09-23T08:16:04.824Z,57.28
2022-09-23T08:18:31.824Z,56.98
2022-09-23T08:20:59.271Z,57.00
2022-09-23T08:23:26.376Z,55.84
2022-09-23T08:26:02.359Z,57.40
2022-09-23T08:28:29.711Z,58.45
2022-09-23T08:30:56.739Z,54.63
2022-09-23T08:33:24.223Z,56.10
2022-09-23T08:35:52.354Z,55.91
2022-09-23T08:38:20.260Z,57.14
2022-09-23T08:40:49.642Z,56.82
2022-09-23T08:43:27.202Z,50.04
2022-09-23T08:45:57.557Z,45.54
2022-09-23T08:48:46.795Z,48.41
2022-09-23T08:51:29.521Z,48.09
2022-09-23T08:53:58.359Z,48.39
2022-09-23T08:56:25.478Z,49.50
2022-09-23T08:58:55.418Z,48.22
2022-09-23T09:01:45.808Z,49.27
2022-09-23T09:04:17.662Z,49.25
2022-09-23T09:06:52.981Z,50.04
2022-09-23T09:09:26.476Z,49.78
2022-09-23T09:12:03.596Z,49.91
2022-09-23T09:14:37.131Z,50.73
2022-09-23T09:17:24.773Z,51.67
2022-09-23T09:19:55.409Z,52.86
2022-09-23T09:22:48.821Z,50.33
2022-09-23T09:25:53.218Z,51.10
2022-09-23T09:28:43.744Z,51.91
2022-09-23T09:31:29.336Z,50.96
2022-09-23T09:34:06.805Z,50.07
2022-09-23T09:36:45.196Z,51.35
2022-09-23T09:39:14.722Z,49.84
2022-09-23T09:41:50.679Z,49.25
2022-09-23T09:44:24.254Z,49.10
2022-09-23T09:46:54.622Z,50.00
2022-09-23T09:49:46.942Z,48.16
2022-09-23T09:52:21.336Z,48.55
2022-09-23T09:54:49.866Z,49.68
2022-09-23T09:57:32.073Z,48.95
2022-09-23T10:00:25.036Z,50.43
2022-09-23T10:03:15.152Z,50.41
2022-09-23T10:05:45.240Z,50.15
2022-09-23T10:08:35.389Z,50.91
2022-09-23T10:11:09.560Z,54.05
2022-09-23T10:13:37.976Z,54.85
2022-09-23T10:16:05.685Z,52.02
2022-09-23T10:18:56.852Z,54.71
2022-09-23T10:21:27.929Z,55.14
2022-09-23T10:24:01.450Z,51.67
2022-09-23T10:26:32.909Z,54.34
2022-09-23T10:29:29.419Z,51.88
2022-09-23T10:32:36.539Z,48.63
2022-09-23T10:35:09.396Z,49.01
2022-09-23T10:37:40.011Z,47.18
2022-09-23T10:40:36.279Z,50.60
2022-09-23T10:44:01.102Z,51.73
2022-09-23T10:46:38.424Z,51.74
2022-09-23T10:49:10.232Z,48.16
2022-09-23T10:51:44.174Z,48.22
2022-09-23T10:54:29.030Z,43.94
2022-09-23T10:57:21.580Z,42.69
2022-09-23T11:00:07.613Z,42.49
2022-09-23T11:02:54.146Z,43.44
2022-09-23T11:05:35.182Z,43.46
2022-09-23T11:08:22.371Z,43.53
2022-09-23T11:10:59.616Z,44.80
2022-09-23T11:13:29.240Z,44.15
2022-09-23T11:16:05.269Z,45.74
2022-09-23T11:18:44.021Z,46.20
2022-09-23T11:21:14.352Z,47.29
2022-09-23T11:23:54.402Z,43.90
2022-09-23T11:26:25.951Z,46.62
2022-09-23T11:28:57.526Z,43.77
2022-09-23T11:31:59.923Z,46.68
2022-09-23T11:34:55.100Z,46.17
2022-09-23T11:37:30.715Z,48.62
2022-09-23T11:40:24.133Z,46.09
2022-09-23T11:43:07.599Z,47.15
2022-09-23T11:45:40.762Z,42.53
2022-09-23T11:48:41.671Z,44.42
2022-09-23T11:51:22.226Z,46.15
2022-09-23T11:53:55.345Z,43.57
2022-09-23T11:56:35.357Z,45.93
2022-09-23T11:59:05.733Z,45.25
2022-09-23T12:01:45.567Z,45.64
2022-09-23T12:04:30.175Z,43.79
2022-09-23T12:07:09.379Z,44.16
2022-09-23T12:09:58.111Z,43.67
2022-09-23T12:12:54.948Z,43.76
2022-09-23T12:15:34.696Z,40.74
2022-09-23T12:18:23.495Z,45.82
2022-09-23T12:21:08.101Z,40.79
2022-09-23T12:24:19.030Z,39.32
2022-09-23T12:26:53.469Z,39.38
2022-09-23T12:29:21.091Z,42.80
2022-09-23T12:31:49.883Z,42.68
2022-09-23T12:34:39.934Z,41.42
2022-09-23T12:37:07.075Z,40.84
2022-09-23T12:39:37.442Z,41.66
2022-09-23T12:42:17.418Z,41.44
2022-09-23T12:44:47.590Z,40.97
2022-09-23T12:47:14.511Z,41.38
2022-09-23T12:49:42.998Z,40.68
2022-09-23T12:52:12.879Z,42.05
2022-09-23T12:54:41.359Z,42.32
2022-09-23T12:57:36.202Z,43.03
2022-09-23T13:00:18.112Z,42.89
2022-09-23T13:03:08.122Z,39.64
2022-09-23T13:06:05.761Z,42.89
2022-09-23T13:08:37.811Z,42.72
2022-09-23T13:11:13.450Z,41.03
2022-09-23T13:13:43.659Z,41.78
2022-09-23T13:16:31.132Z,40.88
2022-09-23T13:19:03.800Z,39.85
2022-09-23T13:21:42.636Z,37.79
2022-09-23T13:24:25.144Z,39.14
2022-09-23T13:27:18.042Z,39.60
2022-09-23T13:30:20.249Z,40.03
2022-09-23T13:33:14.399Z,40.73
2022-09-23T13:35:48.544Z,41.23
2022-09-23T13:38:28.262Z,41.12
2022-09-23T13:41:08.098Z,40.65
2022-09-23T13:43:41.675Z,42.59
2022-09-23T13:46:14.120Z,41.08
2022-09-23T13:48:45.401Z,40.96
2022-09-23T13:51:24.968Z,42.07
2022-09-23T13:53:56.867Z,40.49
2022-09-23T13:56:25.832Z,40.82
2022-09-23T13:58:53.253Z,39.76
2022-09-23T14:01:29.626Z,39.86
2022-09-23T14:03:56.611Z,41.33
2022-09-23T14:06:23.879Z,41.96
2022-09-23T14:08:51.307Z,40.58
2022-09-23T14:11:20.673Z,43.24
2022-09-23T14:13:51.227Z,41.73
2022-09-23T14:16:19.732Z,40.77
2022-09-23T14:18:55.373Z,43.23
2022-09-23T14:21:37.176Z,42.26
2022-09-23T14:24:30.294Z,40.21
2022-09-23T14:27:21.102Z,40.88
2022-09-23T14:29:49.725Z,40.74
2022-09-23T14:32:23.339Z,41.38
2022-09-23T14:35:04.633Z,41.64
2022-09-23T14:38:02.494Z,43.56
2022-09-23T14:40:36.167Z,43.82
2022-09-23T14:43:18.465Z,42.78
2022-09-23T14:45:50.713Z,43.30
2022-09-23T14:48:23.271Z,43.86
2022-09-23T14:50:54.798Z,44.30
2022-09-23T14:53:24.518Z,43.76
2022-09-23T14:56:07.362Z,42.81
2022-09-23T14:58:54.299Z,43.14
2022-09-23T15:01:33.548Z,43.75
2022-09-23T15:04:09.500Z,43.23
2022-09-23T15:06:43.143Z,43.55
2022-09-23T15:09:17.058Z,41.51
2022-09-23T15:11:44.177Z,41.78
2022-09-23T15:14:36.210Z,42.10
2022-09-23T15:17:01.475Z,42.00
2022-09-23T15:19:30.227Z,41.41
2022-09-23T15:21:57.406Z,43.61
2022-09-23T15:24:33.454Z,43.13
2022-09-23T15:27:00.532Z,43.42
2022-09-23T15:29:27.605Z,43.94
2022-09-23T15:31:55.600Z,43.47
2022-09-23T15:34:22.653Z,44.78
2022-09-23T15:36:49.755Z,43.58
2022-09-23T15:39:17.119Z,43.39
2022-09-23T15:41:51.584Z,43.96
2022-09-23T15:44:21.774Z,44.25
2022-09-23T15:46:52.096Z,45.65
2022-09-23T15:49:33.880Z,45.35
2022-09-23T15:52:01.601Z,45.71
2022-09-23T15:54:29.329Z,43.84
2022-09-23T15:57:00.574Z,44.50
2022-09-23T15:59:28.798Z,45.51
2022-09-23T16:01:57.121Z,45.74
2022-09-23T16:04:25.668Z,45.38
2022-09-23T16:06:53.373Z,46.00
2022-09-23T16:09:20.311Z,46.09
2022-09-23T16:11:49.807Z,46.18
2022-09-23T16:14:18.533Z,46.08
2022-09-23T16:16:47.995Z,46.39
2022-09-23T16:19:17.725Z,45.53
2022-09-23T16:21:45.226Z,46.04
2022-09-23T16:24:17.699Z,46.39
2022-09-23T16:26:46.689Z,46.06
2022-09-23T16:29:14.464Z,45.49
2022-09-23T16:31:41.676Z,45.98
2022-09-23T16:34:08.872Z,46.09
2022-09-23T16:36:41.963Z,46.55
2022-09-23T16:39:12.497Z,46.83
2022-09-23T16:41:40.434Z,46.63
2022-09-23T16:44:09.468Z,47.37
2022-09-23T16:46:36.800Z,46.99
2022-09-23T16:49:04.077Z,47.08
2022-09-23T16:51:38.484Z,47.35
2022-09-23T16:54:13.347Z,47.56
2022-09-23T16:56:46.506Z,47.09
2022-09-23T16:59:14.788Z,47.32
2022-09-23T17:02:01.292Z,47.74
2022-09-23T17:04:28.468Z,48.24
2022-09-23T17:06:56.501Z,48.40
2022-09-23T17:09:26.122Z,48.48
2022-09-23T17:12:01.250Z,48.50
2022-09-23T17:14:29.979Z,48.58
2022-09-23T17:16:59.040Z,48.65
2022-09-23T17:19:26.146Z,48.58
2022-09-23T17:21:54.092Z,48.42
2022-09-23T17:24:21.215Z,48.88
2022-09-23T17:26:52.592Z,48.94
2022-09-23T17:29:20.229Z,48.15
2022-09-23T17:31:47.283Z,48.36
2022-09-23T17:34:14.388Z,48.18
2022-09-23T17:36:41.439Z,48.17
2022-09-23T17:39:08.550Z,48.15
2022-09-23T17:41:35.494Z,48.44
2022-09-23T17:44:02.697Z,48.66
2022-09-23T17:46:30.287Z,48.84
2022-09-23T17:48:58.031Z,49.18
2022-09-23T17:51:25.676Z,49.34
2022-09-23T17:53:52.769Z,49.55
2022-09-23T17:56:22.313Z,49.90
2022-09-23T17:58:50.445Z,50.23
2022-09-23T18:01:19.409Z,50.41
2022-09-23T18:03:47.466Z,49.92
2022-09-23T18:06:17.692Z,50.54
2022-09-23T18:08:46.799Z,50.71
2022-09-23T18:11:22.769Z,51.27
2022-09-23T18:13:55.271Z,50.97
2022-09-23T18:16:25.420Z,50.99
2022-09-23T18:18:57.666Z,50.83
2022-09-23T18:21:26.933Z,51.15
2022-09-23T18:23:55.651Z,51.35
2022-09-23T18:26:30.049Z,51.42
2022-09-23T18:29:01.532Z,51.27
2022-09-23T18:31:29.843Z,51.02
2022-09-23T18:33:58.361Z,51.22
2022-09-23T18:36:25.369Z,50.86
2022-09-23T18:38:52.422Z,50.08
2022-09-23T18:41:19.991Z,50.83
2022-09-23T18:43:48.727Z,50.00
2022-09-23T18:46:24.046Z,50.35
2022-09-23T18:49:10.378Z,50.40
2022-09-23T18:51:46.757Z,49.84
2022-09-23T18:54:13.752Z,49.93
2022-09-23T18:56:42.576Z,49.80
2022-09-23T18:59:14.585Z,50.42
2022-09-23T19:01:41.723Z,50.56
2022-09-23T19:04:08.850Z,50.62
2022-09-23T19:06:37.495Z,50.46
2022-09-23T19:09:07.153Z,50.25
2022-09-23T19:11:36.430Z,50.65
2022-09-23T19:14:06.512Z,51.23
2022-09-23T19:16:35.164Z,51.14
2022-09-23T19:19:04.141Z,50.62
2022-09-23T19:21:31.917Z,50.66
2022-09-23T19:24:04.921Z,50.86
2022-09-23T19:26:37.797Z,51.01
2022-09-23T19:29:06.344Z,50.91
2022-09-23T19:31:35.690Z,49.30
2022-09-23T19:34:10.809Z,49.59
2022-09-23T19:36:40.197Z,50.11
2022-09-23T19:39:18.745Z,50.24
2022-09-23T19:41:46.565Z,51.05
2022-09-23T19:44:14.532Z,51.87
2022-09-23T19:46:45.355Z,51.93
2022-09-23T19:49:13.314Z,51.58
2022-09-23T19:51:40.318Z,51.20
2022-09-23T19:54:09.240Z,51.03
2022-09-23T19:56:37.685Z,51.15
2022-09-23T19:59:07.351Z,51.31
2022-09-23T20:01:34.685Z,51.23
2022-09-23T20:04:02.362Z,49.53
2022-09-23T20:06:31.213Z,50.18
2022-09-23T20:09:02.158Z,50.73
2022-09-23T20:11:29.509Z,49.94
2022-09-23T20:14:00.817Z,49.72
2022-09-23T20:16:32.479Z,49.78
2022-09-23T20:19:00.788Z,48.97
2022-09-23T20:21:29.445Z,50.21
2022-09-23T20:23:57.447Z,49.30
2022-09-23T20:26:43.420Z,49.25
2022-09-23T20:29:11.344Z,49.79
2022-09-23T20:31:40.668Z,50.12
2022-09-23T20:34:10.909Z,50.21
2022-09-23T20:36:41.801Z,49.51
2022-09-23T20:39:10.473Z,49.40
2022-09-23T20:41:39.490Z,50.28
2022-09-23T20:44:13.040Z,51.20
2022-09-23T20:46:46.995Z,51.40
2022-09-23T20:49:17.013Z,50.77
2022-09-23T20:51:44.115Z,51.27
2022-09-23T20:54:12.296Z,50.60
2022-09-23T20:56:39.565Z,50.89
2022-09-23T20:59:06.710Z,50.77
2022-09-23T21:01:35.643Z,50.70
2022-09-23T21:04:05.031Z,50.66
2022-09-23T21:06:33.855Z,51.29
2022-09-23T21:09:00.953Z,51.00
2022-09-23T21:11:28.223Z,51.45
2022-09-23T21:13:55.222Z,51.43
2022-09-23T21:16:23.143Z,51.39
2022-09-23T21:18:51.695Z,51.78
2022-09-23T21:21:20.211Z,51.36
2022-09-23T21:23:47.913Z,51.53
2022-09-23T21:26:14.766Z,51.60
2022-09-23T21:28:44.035Z,51.52
2022-09-23T21:31:22.686Z,51.36
2022-09-23T21:33:57.163Z,51.51
2022-09-23T21:36:24.925Z,51.71
2022-09-23T21:38:52.448Z,51.87
2022-09-23T21:41:20.178Z,51.60
2022-09-23T21:43:49.601Z,51.84
2022-09-23T21:46:22.029Z,51.82
2022-09-23T21:48:53.351Z,51.80
2022-09-23T21:51:23.340Z,51.90
2022-09-23T21:53:50.640Z,51.84
2022-09-23T21:56:28.949Z,51.63
2022-09-23T21:58:57.762Z,51.23
2022-09-23T22:01:27.294Z,51.62
2022-09-23T22:03:55.430Z,51.27
2022-09-23T22:06:27.602Z,51.83
2022-09-23T22:09:00.014Z,51.77
2022-09-23T22:11:48.185Z,51.92
2022-09-23T22:14:16.533Z,51.91
2022-09-23T22:16:44.158Z,52.25
2022-09-23T22:19:13.770Z,52.60
2022-09-23T22:21:43.270Z,53.19
2022-09-23T22:24:11.623Z,53.60
2022-09-23T22:26:44.030Z,53.35
2022-09-23T22:29:32.640Z,53.30
2022-09-23T22:32:19.627Z,53.08
2022-09-23T22:34:50.615Z,53.19
2022-09-23T22:37:21.405Z,53.52
2022-09-23T22:39:48.381Z,53.36
2022-09-23T22:42:15.629Z,53.57
2022-09-23T22:44:42.580Z,53.43
2022-09-23T22:47:10.208Z,53.54
2022-09-23T22:49:37.130Z,53.27
2022-09-23T22:52:08.052Z,53.26
2022-09-23T22:54:35.791Z,53.05
2022-09-23T22:57:07.474Z,53.30
2022-09-23T22:59:35.502Z,53.04
2022-09-23T23:02:03.086Z,53.25
2022-09-23T23:04:30.627Z,53.38
2022-09-23T23:06:58.955Z,53.33
2022-09-23T23:09:26.418Z,53.62
2022-09-23T23:11:53.343Z,53.31
2022-09-23T23:14:20.704Z,53.29
2022-09-23T23:16:47.619Z,53.13
2022-09-23T23:19:17.438Z,53.64
2022-09-23T23:21:45.720Z,53.23
2022-09-23T23:24:23.868Z,53.36
2022-09-23T23:26:52.445Z,53.38
2022-09-23T23:29:21.246Z,53.28
2022-09-23T23:31:49.094Z,53.12
2022-09-23T23:34:20.580Z,53.25
2022-09-23T23:36:53.634Z,53.14
2022-09-23T23:39:23.689Z,53.26
2022-09-23T23:41:55.229Z,53.38
2022-09-23T23:44:23.947Z,53.65
2022-09-23T23:46:51.339Z,53.26
2022-09-23T23:49:18.360Z,53.19
2022-09-23T23:51:45.617Z,53.49
2022-09-23T23:54:12.905Z,53.51
2022-09-23T23:56:39.903Z,53.56
2022-09-23T23:59:06.900Z,53.66
